createdAt,value
2023-01-19T00:01:13.775Z,99094.97
2023-01-19T00:06:17.208Z,99092.31
2023-01-19T00:11:21.749Z,99095.81
2023-01-19T00:16:25.172Z,99100.19
2023-01-19T00:21:28.501Z,99104.69
2023-01-19T00:26:32.927Z,99110.06
2023-01-19T00:31:36.072Z,99111.09
2023-01-19T00:36:39.433Z,99122.34
2023-01-19T00:42:01.251Z,99126.56
2023-01-19T00:47:05.744Z,99127.59
2023-01-19T00:52:08.899Z,99137.94
2023-01-19T00:57:13.652Z,99141.31
2023-01-19T01:02:17.129Z,99144.00
2023-01-19T01:07:20.645Z,99142.41
2023-01-19T01:12:25.532Z,99139.97
2023-01-19T01:17:29.019Z,99146.81
2023-01-19T01:22:32.251Z,99147.06
2023-01-19T01:27:36.896Z,99159.09
2023-01-19T01:32:40.425Z,99159.28
2023-01-19T01:37:44.187Z,99166.22
2023-01-19T01:42:48.712Z,99161.34
2023-01-19T01:47:54.098Z,99162.28
2023-01-19T01:53:07.149Z,99158.13
2023-01-19T01:58:13.816Z,99151.41
2023-01-19T02:03:17.231Z,99158.38
2023-01-19T02:08:45.632Z,99163.69
2023-01-19T02:13:50.198Z,99163.19
2023-01-19T02:18:53.346Z,99171.13
2023-01-19T02:23:59.049Z,99177.28
2023-01-19T02:29:04.090Z,99169.66
2023-01-19T02:34:09.542Z,99171.50
2023-01-19T02:39:20.074Z,99174.97
2023-01-19T02:44:25.557Z,99164.88
2023-01-19T02:49:30.929Z,99160.75
2023-01-19T02:54:45.947Z,99160.66
2023-01-19T03:00:02.537Z,99153.16
2023-01-19T03:05:25.070Z,99160.00
2023-01-19T03:10:36.116Z,99150.72
2023-01-19T03:15:46.790Z,99162.06
2023-01-19T03:20:53.597Z,99168.84
2023-01-19T03:26:02.084Z,99157.78
2023-01-19T03:31:12.431Z,99170.84
2023-01-19T03:36:19.854Z,99167.44
2023-01-19T03:41:27.219Z,99177.88
2023-01-19T03:46:32.650Z,99177.22
2023-01-19T03:51:39.227Z,99179.94
2023-01-19T03:56:44.990Z,99179.28
2023-01-19T04:01:48.457Z,99186.06
2023-01-19T04:06:51.634Z,99196.31
2023-01-19T04:11:56.762Z,99198.97
2023-01-19T04:16:59.971Z,99209.44
2023-01-19T04:22:03.212Z,99210.34
2023-01-19T04:27:08.014Z,99214.84
2023-01-19T04:32:11.256Z,99214.00
2023-01-19T04:37:14.515Z,99216.72
2023-01-19T04:42:19.266Z,99213.66
2023-01-19T04:47:22.561Z,99219.84
2023-01-19T04:52:25.726Z,99222.47
2023-01-19T04:57:31.284Z,99227.78
2023-01-19T05:02:34.710Z,99217.59
2023-01-19T05:07:37.824Z,99209.03
2023-01-19T05:12:45.787Z,99207.50
2023-01-19T05:17:49.139Z,99212.22
2023-01-19T05:22:58.248Z,99217.25
2023-01-19T05:28:04.123Z,99208.81
2023-01-19T05:33:07.322Z,99215.69
2023-01-19T05:38:10.708Z,99226.69
2023-01-19T05:43:15.735Z,99230.91
2023-01-19T05:48:18.916Z,99229.16
2023-01-19T05:53:21.967Z,99220.81
2023-01-19T05:58:26.532Z,99224.63
2023-01-19T06:03:32.769Z,99227.38
2023-01-19T06:08:35.834Z,99228.06
2023-01-19T06:13:45.446Z,99223.91
2023-01-19T06:18:48.717Z,99229.25
2023-01-19T06:23:51.912Z,99237.03
2023-01-19T06:28:56.627Z,99241.31
2023-01-19T06:33:59.803Z,99250.75
2023-01-19T06:39:06.120Z,99248.94
2023-01-19T06:44:10.707Z,99242.00
2023-01-19T06:49:19.699Z,99247.03
2023-01-19T06:54:23.164Z,99242.00
2023-01-19T06:59:28.173Z,99240.19
2023-01-19T07:04:31.656Z,99237.47
2023-01-19T07:09:34.839Z,99240.88
2023-01-19T07:14:39.649Z,99234.72
2023-01-19T07:19:44.537Z,99238.88
2023-01-19T07:24:47.588Z,99251.53
2023-01-19T07:29:53.884Z,99269.47
2023-01-19T07:35:00.111Z,99277.00
2023-01-19T07:40:03.347Z,99286.09
2023-01-19T07:45:10.208Z,99287.69
2023-01-19T07:50:14.564Z,99290.81
2023-01-19T07:55:18.199Z,99289.84
2023-01-19T08:00:25.321Z,99293.00
2023-01-19T08:05:34.243Z,99297.72
2023-01-19T08:10:37.917Z,99300.78
2023-01-19T08:15:42.999Z,99296.97
2023-01-19T08:20:46.327Z,99296.56
2023-01-19T08:25:49.394Z,99299.41
2023-01-19T08:30:55.535Z,99302.22
2023-01-19T08:35:58.847Z,99303.84
2023-01-19T08:41:05.600Z,99303.56
2023-01-19T08:46:10.708Z,99305.28
2023-01-19T08:51:15.382Z,99296.72
2023-01-19T08:56:20.714Z,99297.38
2023-01-19T09:01:25.575Z,99301.56
2023-01-19T09:06:28.851Z,99296.44
2023-01-19T09:11:32.065Z,99307.63
2023-01-19T09:16:36.850Z,99312.44
2023-01-19T09:21:40.065Z,99307.38
2023-01-19T09:26:43.185Z,99315.81
2023-01-19T09:31:47.974Z,99323.97
2023-01-19T09:36:51.062Z,99327.06
2023-01-19T09:42:04.003Z,99326.41
2023-01-19T09:47:15.499Z,99319.16
2023-01-19T09:52:23.402Z,99318.59
2023-01-19T09:57:28.133Z,99314.22
2023-01-19T10:02:38.140Z,99321.44
2023-01-19T10:07:54.774Z,99317.97
2023-01-19T10:13:21.871Z,99302.63
2023-01-19T10:18:34.603Z,99296.13
2023-01-19T10:23:42.474Z,99293.38
2023-01-19T10:28:49.274Z,99286.25
2023-01-19T10:33:56.797Z,99281.84
2023-01-19T10:39:19.771Z,99284.88
2023-01-19T10:44:27.975Z,99285.31
2023-01-19T10:49:39.371Z,99293.47
2023-01-19T10:54:48.237Z,99295.00
2023-01-19T10:59:51.984Z,99294.91
2023-01-19T11:04:59.172Z,99291.09
2023-01-19T11:10:24.225Z,99292.00
2023-01-19T11:15:32.860Z,99297.97
2023-01-19T11:20:49.417Z,99286.63
2023-01-19T11:25:56.182Z,99287.25
2023-01-19T11:31:01.293Z,99284.94
2023-01-19T11:36:16.259Z,99277.72
2023-01-19T11:41:28.123Z,99266.34
2023-01-19T11:46:35.409Z,99261.56
2023-01-19T11:51:50.767Z,99258.75
2023-01-19T11:56:56.978Z,99255.31
2023-01-19T12:02:05.619Z,99265.59
2023-01-19T12:07:14.027Z,99254.69
2023-01-19T12:12:28.283Z,99255.53
2023-01-19T12:17:35.965Z,99255.19
2023-01-19T12:22:50.810Z,99238.88
2023-01-19T12:27:55.544Z,99249.22
2023-01-19T12:33:23.673Z,99256.13
2023-01-19T12:38:45.853Z,99256.34
2023-01-19T12:43:51.182Z,99276.47
2023-01-19T12:48:54.987Z,99264.38
2023-01-19T12:54:01.267Z,99260.16
2023-01-19T12:59:06.170Z,99261.09
2023-01-19T13:04:31.796Z,99266.50
2023-01-19T13:09:38.244Z,99267.16
2023-01-19T13:14:43.302Z,99262.34
2023-01-19T13:19:51.345Z,99279.91
2023-01-19T13:25:25.502Z,99271.91
2023-01-19T13:30:31.834Z,99275.44
2023-01-19T13:35:35.793Z,99277.44
2023-01-19T13:40:40.782Z,99280.75
2023-01-19T13:45:51.110Z,99279.81
2023-01-19T13:51:04.262Z,99280.84
2023-01-19T13:56:21.854Z,99286.56
2023-01-19T14:01:28.739Z,99283.88
2023-01-19T14:06:37.305Z,99285.25
2023-01-19T14:11:41.880Z,99287.03
2023-01-19T14:16:47.230Z,99286.78
2023-01-19T14:22:00.709Z,99290.81
2023-01-19T14:27:22.807Z,99293.63
2023-01-19T14:32:27.976Z,99292.91
2023-01-19T14:37:34.763Z,99296.19
2023-01-19T14:42:46.154Z,99307.09
2023-01-19T14:47:57.856Z,99315.78
2023-01-19T14:53:04.351Z,99326.84
2023-01-19T14:58:15.822Z,99328.63
2023-01-19T15:03:24.979Z,99330.59
2023-01-19T15:08:33.518Z,99335.66
2023-01-19T15:13:39.716Z,99325.41
2023-01-19T15:18:42.870Z,99321.91
2023-01-19T15:23:46.257Z,99326.59
2023-01-19T15:28:51.425Z,99336.53
2023-01-19T15:33:54.712Z,99335.81
2023-01-19T15:38:58.158Z,99338.72
2023-01-19T15:44:02.575Z,99332.84
2023-01-19T15:49:20.984Z,99332.22
2023-01-19T15:54:24.074Z,99335.44
2023-01-19T15:59:28.679Z,99343.78
2023-01-19T16:04:31.849Z,99346.38
2023-01-19T16:09:35.058Z,99346.91
2023-01-19T16:14:40.176Z,99350.63
2023-01-19T16:19:43.234Z,99352.28
2023-01-19T16:24:46.393Z,99353.13
2023-01-19T16:29:51.248Z,99350.75
2023-01-19T16:34:57.440Z,99368.72
2023-01-19T16:40:00.912Z,99369.66
2023-01-19T16:45:06.098Z,99377.09
2023-01-19T16:50:12.650Z,99382.38
2023-01-19T16:55:16.238Z,99380.69
2023-01-19T17:00:24.395Z,99386.09
2023-01-19T17:05:29.336Z,99385.06
2023-01-19T17:10:32.675Z,99387.66
2023-01-19T17:15:37.983Z,99383.41
2023-01-19T17:20:41.026Z,99390.44
2023-01-19T17:25:44.042Z,99388.44
2023-01-19T17:30:51.592Z,99402.94
2023-01-19T17:35:56.164Z,99395.88
2023-01-19T17:41:03.011Z,99405.19
2023-01-19T17:46:07.895Z,99397.94
2023-01-19T17:51:13.548Z,99409.34
2023-01-19T17:56:18.647Z,99412.50
2023-01-19T18:01:28.759Z,99420.25
2023-01-19T18:06:36.756Z,99425.22
2023-01-19T18:11:39.910Z,99422.00
2023-01-19T18:16:44.347Z,99423.56
2023-01-19T18:21:48.903Z,99420.03
2023-01-19T18:26:55.522Z,99427.06
2023-01-19T18:32:00.545Z,99426.84
2023-01-19T18:37:03.717Z,99429.75
2023-01-19T18:42:16.291Z,99432.34
2023-01-19T18:47:20.798Z,99427.25
2023-01-19T18:52:27.781Z,99428.91
2023-01-19T18:57:31.090Z,99431.72
2023-01-19T19:02:35.871Z,99432.88
2023-01-19T19:07:45.558Z,99447.94
2023-01-19T19:12:51.105Z,99445.56
2023-01-19T19:17:56.281Z,99448.38
2023-01-19T19:22:59.659Z,99456.13
2023-01-19T19:28:02.982Z,99458.72
2023-01-19T19:33:07.957Z,99456.22
2023-01-19T19:38:11.238Z,99468.22
2023-01-19T19:43:14.467Z,99482.91
2023-01-19T19:48:19.200Z,99476.19
2023-01-19T19:53:23.009Z,99486.66
2023-01-19T19:58:27.463Z,99490.59
2023-01-19T20:03:32.871Z,99494.06
2023-01-19T20:08:37.562Z,99496.34
2023-01-19T20:13:42.956Z,99509.06
2023-01-19T20:18:51.251Z,99518.69
2023-01-19T20:23:55.184Z,99523.63
2023-01-19T20:29:00.887Z,99531.50
2023-01-19T20:34:08.875Z,99537.41
2023-01-19T20:39:12.817Z,99546.59
2023-01-19T20:44:18.923Z,99547.44
2023-01-19T20:49:24.075Z,99543.41
2023-01-19T20:54:30.231Z,99555.50
2023-01-19T20:59:34.342Z,99557.34
2023-01-19T21:04:39.170Z,99560.88
2023-01-19T21:09:43.309Z,99563.34
2023-01-19T21:14:46.472Z,99574.31
2023-01-19T21:19:51.175Z,99571.50
2023-01-19T21:24:54.523Z,99575.66
2023-01-19T21:29:58.727Z,99572.03
2023-01-19T21:35:03.680Z,99578.75
2023-01-19T21:40:08.449Z,99592.50
2023-01-19T21:45:12.192Z,99598.28
2023-01-19T21:50:19.553Z,99601.81
2023-01-19T21:55:22.750Z,99612.06
2023-01-19T22:00:26.477Z,99611.13
2023-01-19T22:05:31.226Z,99622.41
2023-01-19T22:10:37.299Z,99629.94
2023-01-19T22:15:40.580Z,99635.31
2023-01-19T22:20:45.398Z,99631.81
2023-01-19T22:25:48.673Z,99637.81
2023-01-19T22:30:52.035Z,99639.56
2023-01-19T22:35:56.843Z,99648.16
2023-01-19T22:41:00.141Z,99644.66
2023-01-19T22:46:04.258Z,99644.53
2023-01-19T22:51:09.345Z,99640.19
2023-01-19T22:56:14.835Z,99641.13
2023-01-19T23:01:24.444Z,99651.25
2023-01-19T23:06:32.425Z,99642.66
2023-01-19T23:11:37.679Z,99650.53
2023-01-19T23:16:41.264Z,99655.72
2023-01-19T23:21:46.934Z,99655.81
2023-01-19T23:26:50.865Z,99662.75
2023-01-19T23:31:56.544Z,99671.22
2023-01-19T23:37:03.974Z,99672.03
2023-01-19T23:42:08.261Z,99672.25
2023-01-19T23:47:11.568Z,99673.09
2023-01-19T23:52:16.247Z,99690.56
2023-01-19T23:57:19.442Z,99685.69
